createdAt,value
2022-09-04T06:44:49.815Z,73.83
2022-09-04T06:51:08.319Z,72.86
2022-09-04T06:58:03.146Z,69.63
2022-09-04T06:58:20.084Z,71.51
2022-09-04T07:00:40.316Z,69.89
2022-09-04T07:10:54.834Z,69.68
2022-09-04T07:13:35.210Z,69.38
2022-09-04T07:17:39.312Z,69.07
2022-09-04T07:20:28.225Z,69.31
2022-09-04T07:37:46.239Z,67.82
2022-09-04T07:40:38.263Z,66.28
2022-09-04T07:47:01.491Z,65.56
2022-09-04T07:49:38.386Z,65.30
2022-09-04T07:52:27.856Z,65.18
2022-09-04T07:55:08.178Z,65.27
2022-09-04T07:57:46.446Z,65.11
2022-09-04T08:00:18.420Z,64.51
2022-09-04T08:02:56.050Z,62.42
2022-09-04T08:05:33.524Z,59.78
2022-09-04T08:08:44.878Z,60.38
2022-09-04T08:11:27.436Z,60.44
2022-09-04T08:15:51.473Z,59.69
2022-09-04T08:17:32.700Z,55.81
2022-09-04T08:20:03.824Z,53.36
2022-09-04T08:26:41.089Z,52.83
2022-09-04T08:26:46.155Z,53.33
2022-09-04T08:29:49.847Z,52.71
2022-09-04T08:32:46.733Z,53.65
2022-09-04T08:35:31.481Z,53.60
2022-09-04T08:38:21.015Z,53.28
2022-09-04T08:41:13.054Z,54.02
2022-09-04T08:43:43.856Z,53.80
2022-09-04T08:46:31.978Z,53.80
2022-09-04T08:49:13.856Z,54.15
2022-09-04T08:52:14.500Z,54.36
2022-09-04T08:55:01.898Z,52.45
2022-09-04T08:57:35.787Z,52.33
2022-09-04T09:00:17.685Z,51.59
2022-09-04T09:02:50.688Z,51.67
2022-09-04T09:05:45.938Z,50.72
2022-09-04T09:08:21.661Z,50.71
2022-09-04T09:10:52.768Z,49.87
2022-09-04T09:13:29.248Z,50.24
2022-09-04T09:16:01.958Z,51.02
2022-09-04T09:18:41.293Z,51.25
2022-09-04T09:21:41.376Z,50.92
2022-09-04T09:24:30.255Z,50.45
2022-09-04T09:27:39.553Z,50.35
2022-09-04T09:30:21.772Z,50.27
2022-09-04T09:33:01.352Z,49.97
2022-09-04T09:36:05.631Z,50.71
2022-09-04T09:38:51.444Z,51.15
2022-09-04T09:41:58.021Z,51.23
2022-09-04T09:45:07.195Z,51.43
2022-09-04T09:47:49.471Z,51.06
2022-09-04T09:50:38.733Z,51.29
2022-09-04T09:53:31.911Z,50.37
2022-09-04T09:56:15.863Z,50.03
2022-09-04T09:59:06.658Z,49.15
2022-09-04T10:02:01.209Z,49.16
2022-09-04T10:04:36.620Z,47.97
2022-09-04T10:07:32.958Z,48.15
2022-09-04T10:10:27.115Z,47.83
2022-09-04T10:13:54.366Z,48.27
2022-09-04T10:17:20.638Z,46.56
2022-09-04T10:20:24.555Z,46.35
2022-09-04T10:23:17.741Z,44.41
2022-09-04T10:26:31.687Z,43.75
2022-09-04T10:29:11.593Z,43.94
2022-09-04T10:32:07.507Z,44.10
2022-09-04T10:34:36.593Z,44.73
2022-09-04T10:37:24.479Z,43.68
2022-09-04T10:40:34.488Z,44.04
2022-09-04T10:43:22.558Z,45.34
2022-09-04T10:46:22.995Z,45.65
2022-09-04T10:52:54.317Z,46.99
2022-09-04T11:05:17.591Z,46.67
2022-09-04T11:07:33.209Z,46.63
2022-09-04T11:10:49.735Z,46.52
2022-09-04T11:12:03.596Z,46.75
2022-09-04T11:14:08.017Z,46.00
2022-09-04T11:16:57.304Z,45.91
2022-09-04T11:19:56.122Z,46.11
2022-09-04T11:22:33.313Z,45.32
2022-09-04T11:25:18.642Z,44.90
2022-09-04T11:31:40.907Z,45.14
2022-09-04T11:34:38.513Z,44.58
2022-09-04T11:41:36.789Z,43.99
2022-09-04T11:44:02.436Z,44.45
2022-09-04T11:44:11.747Z,43.93
2022-09-04T11:46:38.420Z,43.76
2022-09-04T11:49:09.464Z,44.22
2022-09-04T11:51:43.812Z,44.48
2022-09-04T11:54:19.204Z,45.04
2022-09-04T11:57:15.557Z,45.78
2022-09-04T12:00:13.913Z,45.72
2022-09-04T12:03:02.447Z,45.58
2022-09-04T12:05:49.677Z,44.44
2022-09-04T12:08:36.395Z,44.42
2022-09-04T12:11:03.335Z,44.20
2022-09-04T12:13:32.791Z,44.03
2022-09-04T12:16:02.855Z,43.89
2022-09-04T12:18:45.836Z,44.04
2022-09-04T12:21:13.844Z,44.08
2022-09-04T12:24:01.684Z,44.22
2022-09-04T12:26:40.151Z,44.10
2022-09-04T12:29:36.600Z,43.92
2022-09-04T12:32:27.069Z,43.61
2022-09-04T12:35:09.305Z,43.80
2022-09-04T12:37:59.127Z,43.30
2022-09-04T12:40:42.324Z,42.89
2022-09-04T12:43:29.425Z,42.31
2022-09-04T12:46:24.554Z,41.82
2022-09-04T12:49:26.347Z,42.03
2022-09-04T12:52:22.313Z,41.78
2022-09-04T12:55:05.782Z,42.21
2022-09-04T12:57:59.869Z,42.46
2022-09-04T13:00:51.903Z,42.84
2022-09-04T13:03:57.956Z,42.54
2022-09-04T13:07:16.061Z,42.39
2022-09-04T13:19:17.475Z,41.49
2022-09-04T13:28:06.938Z,41.07
2022-09-04T13:29:18.191Z,40.89
2022-09-04T13:40:35.758Z,42.03
2022-09-04T13:43:36.413Z,42.18
2022-09-04T13:46:21.136Z,42.51
2022-09-04T13:49:42.247Z,42.93
2022-09-04T13:52:52.361Z,42.34
2022-09-04T13:55:49.965Z,42.41
2022-09-04T13:58:54.944Z,42.65
2022-09-04T14:01:25.158Z,42.42
2022-09-04T14:04:05.200Z,42.39
2022-09-04T14:06:53.804Z,42.32
2022-09-04T14:09:22.305Z,42.43
2022-09-04T14:11:59.558Z,43.09
2022-09-04T14:14:48.055Z,42.79
2022-09-04T14:17:44.734Z,42.65
2022-09-04T14:20:24.382Z,43.06
2022-09-04T14:23:30.342Z,43.56
2022-09-04T14:26:07.951Z,44.04
2022-09-04T14:28:40.307Z,44.18
2022-09-04T14:31:32.720Z,44.49
2022-09-04T14:34:26.012Z,44.94
2022-09-04T14:37:09.910Z,45.00
2022-09-04T14:39:57.439Z,45.16
2022-09-04T14:42:34.624Z,45.52
2022-09-04T14:45:11.969Z,45.73
2022-09-04T14:47:48.721Z,46.07
2022-09-04T14:50:30.761Z,46.46
2022-09-04T14:53:07.194Z,46.75
2022-09-04T14:55:43.192Z,47.11
2022-09-04T14:58:43.152Z,47.29
2022-09-04T15:01:16.818Z,47.39
2022-09-04T15:04:11.077Z,47.30
2022-09-04T15:07:13.229Z,47.36
2022-09-04T15:10:17.263Z,47.21
2022-09-04T15:12:59.569Z,47.29
2022-09-04T15:15:59.358Z,47.35
2022-09-04T15:18:33.606Z,47.00
2022-09-04T15:21:21.504Z,47.01
2022-09-04T15:23:56.183Z,47.36
2022-09-04T15:26:47.072Z,47.47
2022-09-04T15:29:53.759Z,47.71
2022-09-04T15:32:33.720Z,47.91
2022-09-04T15:35:33.325Z,47.55
2022-09-04T15:38:26.500Z,47.51
2022-09-04T15:41:16.633Z,47.22
2022-09-04T15:43:50.265Z,47.18
2022-09-04T15:46:20.821Z,47.22
2022-09-04T15:49:09.670Z,47.08
2022-09-04T15:51:51.192Z,47.13
2022-09-04T15:54:42.081Z,47.44
2022-09-04T15:57:36.738Z,47.83
2022-09-04T16:00:16.970Z,47.93
2022-09-04T16:03:14.099Z,48.17
2022-09-04T16:05:48.909Z,48.42
2022-09-04T16:08:49.512Z,48.44
2022-09-04T16:12:03.691Z,48.75
2022-09-04T16:15:36.039Z,48.58
2022-09-04T16:18:53.376Z,47.87
2022-09-04T16:21:48.941Z,47.78
2022-09-04T16:24:43.157Z,47.69
2022-09-04T16:27:22.926Z,47.96
2022-09-04T16:29:54.812Z,48.43
2022-09-04T16:32:52.070Z,48.76
2022-09-04T16:35:32.393Z,49.00
2022-09-04T16:38:34.480Z,49.35
2022-09-04T16:41:27.818Z,49.67
2022-09-04T16:44:06.428Z,50.35
2022-09-04T16:46:43.974Z,50.88
2022-09-04T16:49:31.848Z,51.44
2022-09-04T16:52:26.473Z,51.95
2022-09-04T16:55:02.027Z,52.58
2022-09-04T16:57:47.678Z,53.18
2022-09-04T17:00:17.019Z,53.63
2022-09-04T17:02:56.852Z,54.14
2022-09-04T17:05:34.661Z,55.04
2022-09-04T17:08:18.585Z,55.55
2022-09-04T17:11:06.936Z,55.93
2022-09-04T17:14:15.383Z,56.32
2022-09-04T17:16:55.944Z,56.83
2022-09-04T17:19:49.577Z,57.50
2022-09-04T17:28:44.719Z,58.00
2022-09-04T17:29:12.870Z,58.78
2022-09-04T17:29:38.321Z,59.34
2022-09-04T17:33:22.630Z,59.58
2022-09-04T17:40:40.273Z,59.83
2022-09-04T17:40:49.875Z,60.11
2022-09-04T17:42:20.292Z,60.30
2022-09-04T17:45:31.678Z,60.60
2022-09-04T17:48:14.572Z,60.82
2022-09-04T17:50:51.201Z,61.14
2022-09-04T17:53:33.457Z,61.28
2022-09-04T17:56:06.955Z,61.78
2022-09-04T17:59:09.316Z,61.93
2022-09-04T18:01:59.289Z,62.33
2022-09-04T18:04:32.054Z,62.65
2022-09-04T18:07:51.092Z,63.09
2022-09-04T18:10:09.461Z,63.41
2022-09-04T18:12:52.427Z,63.72
2022-09-04T18:15:51.589Z,63.96
2022-09-04T18:18:29.698Z,64.12
2022-09-04T18:21:22.439Z,64.53
2022-09-04T18:23:58.362Z,65.00
2022-09-04T18:26:25.156Z,64.96
2022-09-04T18:30:57.198Z,65.53
2022-09-04T18:37:23.852Z,65.86
2022-09-04T18:37:25.487Z,65.75
2022-09-04T18:39:26.535Z,65.79
2022-09-04T18:49:54.097Z,66.12
2022-09-04T18:50:22.620Z,66.18
2022-09-04T18:50:31.760Z,66.31
2022-09-04T18:53:43.946Z,66.44
2022-09-04T18:56:20.746Z,66.32
2022-09-04T18:58:58.029Z,66.47
2022-09-04T19:01:34.144Z,66.34
2022-09-04T19:04:00.808Z,66.26
2022-09-04T19:06:47.708Z,66.30
2022-09-04T19:09:16.870Z,66.18
2022-09-04T19:11:53.687Z,66.11
2022-09-04T19:14:25.192Z,66.04
2022-09-04T19:17:05.199Z,66.15
2022-09-04T19:19:42.839Z,66.01
2022-09-04T19:22:28.320Z,66.08
2022-09-04T19:25:07.877Z,66.17
2022-09-04T19:27:40.795Z,66.17
2022-09-04T19:30:25.088Z,66.59
2022-09-04T19:33:02.388Z,66.51
2022-09-04T19:35:36.131Z,66.68
2022-09-04T19:41:42.960Z,66.86
2022-09-04T19:46:04.810Z,67.21
2022-09-04T19:46:06.802Z,66.86
2022-09-04T19:47:28.864Z,66.56
2022-09-04T19:53:20.030Z,66.55
2022-09-04T19:53:37.480Z,66.31
2022-09-04T19:56:09.383Z,66.21
2022-09-04T19:58:43.973Z,66.12
2022-09-04T20:01:16.542Z,66.24
2022-09-04T20:03:57.189Z,66.38
2022-09-04T20:06:59.470Z,66.69
2022-09-04T20:09:38.659Z,66.93
2022-09-04T20:12:14.555Z,67.13
2022-09-04T20:15:00.230Z,67.51
2022-09-04T20:17:35.976Z,67.58
2022-09-04T20:20:05.907Z,67.65
2022-09-04T20:22:44.798Z,67.86
2022-09-04T20:25:24.246Z,68.30
2022-09-04T20:27:56.706Z,68.64
2022-09-04T20:30:24.198Z,68.73
2022-09-04T20:33:03.499Z,68.88
2022-09-04T20:35:42.149Z,69.15
2022-09-04T20:38:23.496Z,68.92
2022-09-04T20:40:56.053Z,68.97
2022-09-04T20:43:37.464Z,69.18
2022-09-04T20:51:45.314Z,69.43
2022-09-04T20:52:55.882Z,69.58
2022-09-04T20:53:00.394Z,69.95
2022-09-04T20:54:51.209Z,70.56
2022-09-04T21:00:14.704Z,70.75
2022-09-04T21:03:23.006Z,70.72
2022-09-04T21:03:28.915Z,70.77
2022-09-04T21:06:07.379Z,70.96
2022-09-04T21:08:40.231Z,71.21
2022-09-04T21:11:14.862Z,71.09
2022-09-04T21:14:00.261Z,71.07
2022-09-04T21:16:45.316Z,71.44
2022-09-04T21:19:27.781Z,71.44
2022-09-04T21:21:57.859Z,71.48
2022-09-04T21:24:34.446Z,71.51
2022-09-04T21:27:15.584Z,71.63
2022-09-04T21:29:45.072Z,71.85
2022-09-04T21:32:24.318Z,72.04
2022-09-04T21:35:12.657Z,71.91
2022-09-04T21:37:48.937Z,72.13
2022-09-04T21:40:50.440Z,72.41
2022-09-04T21:43:17.270Z,72.33
2022-09-04T21:45:59.124Z,72.26
2022-09-04T21:48:25.938Z,72.50
2022-09-04T21:51:00.693Z,72.53
2022-09-04T21:53:27.226Z,72.54
2022-09-04T22:00:09.329Z,72.67
2022-09-04T22:02:29.145Z,72.71
2022-09-04T22:02:43.255Z,72.42
2022-09-04T22:04:46.610Z,72.62
2022-09-04T22:10:11.977Z,72.68
2022-09-04T22:13:34.246Z,72.85
2022-09-04T22:13:41.032Z,72.71
2022-09-04T22:16:04.379Z,72.65
2022-09-04T22:18:30.999Z,72.63
2022-09-04T22:21:16.409Z,72.79
2022-09-04T22:23:48.883Z,73.19
2022-09-04T22:26:38.699Z,73.48
2022-09-04T22:29:08.162Z,73.67
2022-09-04T22:32:02.421Z,73.80
2022-09-04T22:34:45.852Z,73.97
2022-09-04T22:37:30.306Z,73.91
2022-09-04T22:40:05.155Z,74.21
2022-09-04T22:42:37.861Z,74.37
2022-09-04T22:45:23.076Z,74.61
2022-09-04T22:48:08.112Z,74.89
2022-09-04T22:50:50.247Z,74.94
2022-09-04T22:53:27.151Z,75.25
2022-09-04T22:56:22.660Z,75.70
2022-09-04T22:58:53.898Z,75.69
2022-09-04T23:01:22.636Z,76.48
2022-09-04T23:03:57.972Z,76.39
2022-09-04T23:09:04.498Z,76.48
2022-09-04T23:13:44.858Z,76.69
2022-09-04T23:13:48.350Z,77.40
2022-09-04T23:15:52.020Z,77.36
2022-09-04T23:20:41.129Z,77.64
2022-09-04T23:26:45.515Z,78.20
2022-09-04T23:26:49.608Z,77.95
2022-09-04T23:27:28.018Z,78.35
2022-09-04T23:30:04.810Z,78.37
2022-09-04T23:32:35.547Z,78.36
2022-09-04T23:35:20.064Z,78.37
2022-09-04T23:38:07.679Z,78.33
2022-09-04T23:41:32.526Z,78.80
2022-09-04T23:44:28.536Z,79.00
2022-09-04T23:47:46.637Z,79.10
2022-09-04T23:50:43.213Z,79.06
2022-09-04T23:53:30.749Z,79.14
2022-09-04T23:56:18.423Z,78.90
2022-09-04T23:59:24.501Z,79.11
